Time;durP1;ratioP1;P1;durP2;ratioP2;P2;SDS_P1;SDS_P2;PMS_P1;PMS_P2;Temp;Humidity;BMP_temperature;BMP_pressure;BME280_temperature;BME280_humidity;BME280_pressure;Samples;Min_cycle;Max_cycle;Signal;HPM_P1;HPM_P2
2022/04/12 00:01:05;;;;;;;9.27;2.65;;;9.90;99.90;;;;;;5093036;28;20042;-65
2022/04/12 00:03:31;;;;;;;9.90;3.03;;;9.80;99.90;;;;;;5093099;28;20438;-65
2022/04/12 00:05:57;;;;;;;6.22;1.25;;;9.80;99.80;;;;;;5093059;28;20039;-65
2022/04/12 00:08:22;;;;;;;14.73;2.70;;;9.80;99.70;;;;;;5092864;28;20054;-65
2022/04/12 00:10:49;;;;;;;8.18;1.70;;;9.80;99.60;;;;;;5092845;28;20051;-65
2022/04/12 00:13:18;;;;;;;7.45;1.50;;;9.80;99.30;;;;;;5092648;28;20479;-65
2022/04/12 00:15:44;;;;;;;26.38;5.30;;;9.70;99.60;;;;;;5092559;28;20036;-65
2022/04/12 00:20:55;;;;;;;8.05;1.95;;;9.80;99.20;;;;;;5092742;28;20529;-65
2022/04/12 00:23:21;;;;;;;5.85;1.83;;;9.80;99.10;;;;;;5093027;28;20495;-65
2022/04/12 00:25:47;;;;;;;4.47;1.73;;;9.70;99.20;;;;;;5092857;28;20050;-65
2022/04/12 00:28:14;;;;;;;9.48;2.90;;;9.70;99.20;;;;;;5094156;28;20035;-65
2022/04/12 00:30:41;;;;;;;6.00;1.55;;;9.60;99.20;;;;;;5092984;28;20079;-65
2022/04/12 00:33:07;;;;;;;6.88;1.73;;;9.60;98.90;;;;;;5073118;28;20036;-65
2022/04/12 00:35:33;;;;;;;8.73;1.77;;;9.50;99.10;;;;;;5074908;28;20044;-65
2022/04/12 00:37:59;;;;;;;7.03;2.00;;;9.60;98.80;;;;;;5076163;28;20511;-65
2022/04/12 00:40:25;;;;;;;4.03;1.27;;;9.70;98.20;;;;;;5076223;28;20052;-65
2022/04/12 00:42:52;;;;;;;4.90;1.77;;;9.80;98.00;;;;;;5076335;28;20055;-65
2022/04/12 00:45:18;;;;;;;5.53;1.67;;;9.70;98.10;;;;;;5076366;28;20071;-65
2022/04/12 00:47:44;;;;;;;7.22;1.60;;;9.60;98.20;;;;;;5076046;28;20492;-65
2022/04/12 00:50:11;;;;;;;7.15;1.50;;;9.50;98.20;;;;;;5075999;28;20049;-65
2022/04/12 00:52:43;;;;;;;3.92;1.20;;;9.50;98.00;;;;;;5076155;28;20090;-65
2022/04/12 00:55:10;;;;;;;5.78;1.83;;;9.50;97.80;;;;;;5076088;28;20040;-65
2022/04/12 00:57:37;;;;;;;9.75;1.48;;;9.50;97.60;;;;;;5076229;28;20143;-65
2022/04/12 01:00:06;;;;;;;5.85;1.52;;;9.60;97.40;;;;;;5076035;28;20075;-65
2022/04/12 01:02:33;;;;;;;6.68;1.52;;;9.60;97.30;;;;;;5075557;28;20369;-65
2022/04/12 01:05:05;;;;;;;5.93;2.10;;;9.60;96.90;;;;;;5075545;28;20037;-65
2022/04/12 01:07:31;;;;;;;5.18;1.50;;;9.50;96.90;;;;;;5075491;28;20048;-65
2022/04/12 01:09:58;;;;;;;6.00;1.52;;;9.50;96.90;;;;;;5075472;28;20044;-65
2022/04/12 01:12:27;;;;;;;5.93;2.00;;;9.50;96.30;;;;;;5075772;28;20464;-65
2022/04/12 01:14:53;;;;;;;5.55;1.88;;;9.50;96.00;;;;;;5075654;28;20522;-65
2022/04/12 01:17:18;;;;;;;3.65;1.77;;;9.50;95.70;;;;;;5075555;28;20075;-65
2022/04/12 01:19:44;;;;;;;3.88;1.40;;;9.50;95.70;;;;;;5075389;28;20047;-65
2022/04/12 01:22:21;;;;;;;5.13;1.48;;;9.50;95.70;;;;;;5075162;28;20071;-65
2022/04/12 01:24:47;;;;;;;5.68;1.40;;;9.40;95.60;;;;;;5074888;28;20518;-65
2022/04/12 01:27:13;;;;;;;6.82;1.42;;;9.40;95.60;;;;;;5075122;28;20041;-65
2022/04/12 01:29:39;;;;;;;5.35;1.30;;;9.50;95.40;;;;;;5074920;28;20090;-65
2022/04/12 01:32:08;;;;;;;3.38;1.48;;;9.50;95.10;;;;;;5075241;28;20044;-65
2022/04/12 01:34:37;;;;;;;7.80;2.85;;;9.50;95.10;;;;;;5075144;28;20048;-65
2022/04/12 01:37:07;;;;;;;9.10;2.10;;;9.40;95.40;;;;;;5075270;28;20059;-65
2022/04/12 01:39:33;;;;;;;15.38;4.95;;;9.40;95.10;;;;;;5074260;28;20043;-65
2022/04/12 01:41:59;;;;;;;13.52;4.32;;;9.40;95.40;;;;;;5075233;28;20037;-66
2022/04/12 01:44:26;;;;;;;8.40;3.15;;;9.40;95.30;;;;;;5075225;28;20047;-65
2022/04/12 01:46:52;;;;;;;4.75;1.65;;;9.30;95.40;;;;;;5075149;28;20041;-65
2022/04/12 01:49:18;;;;;;;4.32;1.50;;;9.20;95.40;;;;;;5074985;28;20055;-65
2022/04/12 01:51:44;;;;;;;9.98;3.33;;;9.20;95.40;;;;;;5075188;28;20119;-65
2022/04/12 01:54:10;;;;;;;6.88;1.60;;;9.20;95.70;;;;;;5075016;28;20404;-65
2022/04/12 01:56:36;;;;;;;6.55;1.45;;;9.10;95.70;;;;;;5075038;28;20483;-65
2022/04/12 01:59:04;;;;;;;4.75;1.23;;;9.00;95.90;;;;;;5074754;28;20042;-65
2022/04/12 02:01:30;;;;;;;7.18;2.17;;;9.10;95.80;;;;;;5074946;28;20043;-65
2022/04/12 02:03:56;;;;;;;7.95;2.22;;;9.10;95.90;;;;;;5074548;28;20158;-65
2022/04/12 02:06:22;;;;;;;8.15;1.80;;;9.10;96.00;;;;;;5074742;28;20029;-65
2022/04/12 02:08:48;;;;;;;9.38;1.77;;;9.10;95.80;;;;;;5074688;28;20048;-65
2022/04/12 02:11:14;;;;;;;4.68;1.90;;;9.10;95.80;;;;;;5074607;28;20044;-65
2022/04/12 02:13:40;;;;;;;10.15;2.47;;;9.20;95.60;;;;;;5074627;28;20097;-65
2022/04/12 02:16:06;;;;;;;8.07;1.83;;;9.20;95.70;;;;;;5074351;28;20044;-65
2022/04/12 02:18:31;;;;;;;10.02;2.85;;;9.20;95.80;;;;;;5074120;28;20441;-65
2022/04/12 02:20:57;;;;;;;6.50;1.98;;;9.20;95.70;;;;;;5074213;28;20119;-65
2022/04/12 02:23:23;;;;;;;6.45;1.98;;;9.20;95.60;;;;;;5073942;28;20040;-65
2022/04/12 02:25:49;;;;;;;5.65;1.40;;;9.20;95.70;;;;;;5073992;28;20040;-65
2022/04/12 02:28:16;;;;;;;7.65;2.03;;;9.10;95.80;;;;;;5058956;28;20047;-65
2022/04/12 02:30:43;;;;;;;6.13;1.73;;;9.10;96.10;;;;;;5074208;28;20055;-65
2022/04/12 02:33:09;;;;;;;8.07;2.33;;;9.20;95.80;;;;;;5080560;28;20044;-65
2022/04/12 02:35:35;;;;;;;7.63;2.08;;;9.10;96.10;;;;;;5094055;28;20044;-65
2022/04/12 02:38:01;;;;;;;5.55;1.55;;;9.20;96.10;;;;;;5094067;28;20071;-65
2022/04/12 02:40:27;;;;;;;5.32;1.90;;;9.20;96.00;;;;;;5094016;28;20044;-65
2022/04/12 02:42:52;;;;;;;6.05;2.40;;;9.20;95.90;;;;;;5094365;28;20044;-65
2022/04/12 02:45:18;;;;;;;7.97;1.77;;;9.20;95.90;;;;;;5094168;28;20391;-65
2022/04/12 02:47:44;;;;;;;8.10;1.75;;;9.20;96.30;;;;;;5094086;28;20157;-65
2022/04/12 02:50:10;;;;;;;5.95;1.60;;;9.20;96.10;;;;;;5093962;28;20051;-65
2022/04/12 02:52:36;;;;;;;4.78;1.35;;;9.20;96.20;;;;;;5094180;28;20050;-65
2022/04/12 02:55:03;;;;;;;4.85;1.67;;;9.20;96.50;;;;;;5094175;28;20114;-65
2022/04/12 02:57:28;;;;;;;4.32;1.70;;;9.20;96.30;;;;;;5093972;28;20043;-65
2022/04/12 02:59:54;;;;;;;2.97;1.50;;;9.20;96.60;;;;;;5093896;28;20043;-65
2022/04/12 03:02:20;;;;;;;4.20;1.10;;;9.20;96.70;;;;;;5093687;28;20075;-65
2022/04/12 03:04:46;;;;;;;6.78;1.45;;;9.20;96.50;;;;;;5093562;28;20044;-64
2022/04/12 03:07:11;;;;;;;6.72;1.77;;;9.20;96.70;;;;;;5093931;28;20037;-65
2022/04/12 03:09:37;;;;;;;8.27;2.15;;;9.20;96.50;;;;;;5093736;28;20040;-65
2022/04/12 03:12:04;;;;;;;12.35;1.73;;;9.30;96.50;;;;;;5093547;28;20063;-65
2022/04/12 03:14:30;;;;;;;6.80;1.70;;;9.30;96.20;;;;;;5093336;28;20044;-64
2022/04/12 03:16:56;;;;;;;8.20;1.98;;;9.30;96.10;;;;;;5093614;28;20047;-65
2022/04/12 03:19:22;;;;;;;5.35;1.33;;;9.30;96.00;;;;;;5093675;28;20024;-65
2022/04/12 03:21:48;;;;;;;5.20;1.30;;;9.30;96.10;;;;;;5093718;28;20376;-65
2022/04/12 03:24:13;;;;;;;6.97;1.33;;;9.30;95.90;;;;;;5093684;28;20085;-65
2022/04/12 03:26:39;;;;;;;9.27;1.98;;;9.30;95.70;;;;;;5093869;28;20035;-65
2022/04/12 03:29:05;;;;;;;8.90;1.75;;;9.30;95.80;;;;;;5093396;28;20495;-65
2022/04/12 03:31:30;;;;;;;5.45;1.90;;;9.20;95.60;;;;;;5093496;28;20063;-65
2022/04/12 03:33:56;;;;;;;5.20;1.80;;;9.20;95.80;;;;;;5093534;28;20499;-65
2022/04/12 03:36:22;;;;;;;5.20;1.20;;;9.20;95.80;;;;;;5093501;28;20048;-65
2022/04/12 03:38:48;;;;;;;3.92;1.27;;;9.20;96.00;;;;;;5093510;28;20028;-65
2022/04/12 03:41:22;;;;;;;5.55;1.23;;;9.30;95.70;;;;;;5093371;28;20127;-65
2022/04/12 03:43:49;;;;;;;6.10;1.30;;;9.40;95.50;;;;;;5093383;28;20035;-65
2022/04/12 03:46:14;;;;;;;3.97;1.23;;;9.50;95.40;;;;;;5093360;28;20627;-65
2022/04/12 03:48:40;;;;;;;4.88;1.42;;;9.50;95.40;;;;;;5093616;28;20066;-65
2022/04/12 03:51:06;;;;;;;8.18;2.05;;;9.50;95.60;;;;;;5093390;28;20048;-65
2022/04/12 03:53:32;;;;;;;13.68;4.38;;;9.50;95.60;;;;;;5093046;28;20403;-65
2022/04/12 03:55:58;;;;;;;12.05;3.08;;;9.50;95.70;;;;;;5092994;28;20051;-65
2022/04/12 03:58:24;;;;;;;6.20;1.98;;;9.50;95.70;;;;;;5092985;28;20491;-65
2022/04/12 04:00:50;;;;;;;7.38;1.45;;;9.40;96.00;;;;;;5093331;28;20119;-65
2022/04/12 04:03:17;;;;;;;7.35;2.10;;;9.40;95.90;;;;;;5092473;28;20402;-65
2022/04/12 04:05:44;;;;;;;11.68;3.13;;;9.50;95.90;;;;;;5093131;28;20024;-65
2022/04/12 04:08:10;;;;;;;7.05;2.65;;;9.40;96.00;;;;;;5092690;28;20044;-65
2022/04/12 04:10:36;;;;;;;4.00;1.52;;;9.50;96.00;;;;;;5092684;28;20142;-65
2022/04/12 04:13:08;;;;;;;9.20;2.55;;;9.50;95.90;;;;;;5093007;28;20131;-65
2022/04/12 04:15:36;;;;;;;7.00;1.50;;;9.60;95.80;;;;;;5092854;28;20119;-65
2022/04/12 04:18:02;;;;;;;6.72;2.65;;;9.60;95.70;;;;;;5092921;28;20078;-65
2022/04/12 04:20:28;;;;;;;4.53;1.40;;;9.50;95.80;;;;;;5092802;28;20127;-65
2022/04/12 04:22:54;;;;;;;8.73;2.42;;;9.60;95.50;;;;;;5092674;28;20063;-65
2022/04/12 04:25:20;;;;;;;8.10;1.52;;;9.70;95.60;;;;;;5092975;28;20093;-65
2022/04/12 04:27:46;;;;;;;7.50;1.13;;;9.60;95.60;;;;;;5092408;28;20070;-65
2022/04/12 04:30:12;;;;;;;4.10;0.95;;;9.70;95.50;;;;;;5092284;28;20487;-65
2022/04/12 04:32:39;;;;;;;14.63;2.38;;;9.70;95.40;;;;;;5092827;28;20124;-65
2022/04/12 04:35:05;;;;;;;5.00;1.98;;;;;;;;;;5078273;28;20503;-66
2022/04/12 04:37:31;;;;;;;4.28;1.30;;;9.70;94.90;;;;;;5070287;28;20048;-65
2022/04/12 04:39:57;;;;;;;11.60;2.88;;;9.80;94.90;;;;;;5070389;28;20039;-65
2022/04/12 04:42:27;;;;;;;5.68;1.23;;;9.70;95.20;;;;;;5072139;28;20044;-65
2022/04/12 04:44:52;;;;;;;6.22;1.35;;;9.70;94.90;;;;;;5072146;28;20043;-65
2022/04/12 04:47:18;;;;;;;7.50;0.98;;;9.70;94.90;;;;;;5072275;28;20048;-65
2022/04/12 04:49:44;;;;;;;8.68;1.88;;;9.70;94.80;;;;;;5072133;28;21072;-65
2022/04/12 04:52:10;;;;;;;10.80;2.08;;;9.80;94.50;;;;;;5072021;28;20503;-65
2022/04/12 04:54:35;;;;;;;7.47;2.58;;;9.80;94.60;;;;;;5071984;28;20040;-65
2022/04/12 04:57:01;;;;;;;6.47;2.00;;;9.70;95.10;;;;;;5072106;28;20128;-65
2022/04/12 04:59:27;;;;;;;3.63;1.33;;;9.60;95.20;;;;;;5072444;28;20039;-65
2022/04/12 05:01:52;;;;;;;5.82;1.42;;;9.50;95.60;;;;;;5072121;28;20115;-65
2022/04/12 05:04:18;;;;;;;7.97;1.30;;;9.60;95.40;;;;;;5072131;28;20039;-66
2022/04/12 05:06:45;;;;;;;6.60;1.45;;;9.70;94.70;;;;;;5072771;28;20431;-65
2022/04/12 05:09:11;;;;;;;6.55;1.40;;;9.80;94.90;;;;;;5073394;28;20391;-65
2022/04/12 05:11:37;;;;;;;9.57;1.83;;;9.90;94.50;;;;;;5072051;28;20509;-65
2022/04/12 05:14:03;;;;;;;4.53;1.42;;;10.00;94.50;;;;;;5072119;28;20123;-66
2022/04/12 05:16:28;;;;;;;4.10;1.45;;;10.10;94.00;;;;;;5075220;28;20503;-65
2022/04/12 05:18:54;;;;;;;6.50;1.35;;;10.00;94.60;;;;;;5075638;28;20487;-65
2022/04/12 05:21:20;;;;;;;4.13;1.48;;;10.00;94.30;;;;;;5075687;28;20032;-65
2022/04/12 05:23:46;;;;;;;6.13;1.90;;;10.00;94.70;;;;;;5075418;28;20044;-65
2022/04/12 05:26:11;;;;;;;5.25;1.30;;;10.00;94.60;;;;;;5075430;28;20171;-65
2022/04/12 05:28:37;;;;;;;6.20;1.65;;;10.10;94.30;;;;;;5075584;28;20173;-65
2022/04/12 05:31:03;;;;;;;4.10;1.38;;;10.20;94.00;;;;;;5075621;28;20097;-65
2022/04/12 05:33:29;;;;;;;5.90;1.50;;;10.30;94.10;;;;;;5075687;28;20041;-65
2022/04/12 05:35:55;;;;;;;4.88;1.73;;;10.30;94.50;;;;;;5075387;28;20070;-65
2022/04/12 05:38:20;;;;;;;5.70;1.85;;;10.20;94.30;;;;;;5088345;28;20040;-65
2022/04/12 05:40:46;;;;;;;5.65;1.60;;;10.20;94.50;;;;;;5095366;28;20111;-65
2022/04/12 05:43:12;;;;;;;3.72;1.52;;;10.20;94.70;;;;;;5088563;28;20136;-65
2022/04/12 05:45:38;;;;;;;5.75;1.35;;;10.20;94.70;;;;;;5075418;28;20089;-65
2022/04/12 05:48:04;;;;;;;3.90;1.40;;;10.20;94.40;;;;;;5074990;28;20044;-65
2022/04/12 05:50:30;;;;;;;2.95;1.23;;;10.20;94.60;;;;;;5075125;28;20056;-65
2022/04/12 05:52:57;;;;;;;4.78;2.15;;;10.20;94.40;;;;;;5074858;28;20082;-65
2022/04/12 05:55:24;;;;;;;11.70;2.08;;;10.30;95.10;;;;;;5077788;28;20523;-65
2022/04/12 05:57:59;;;;;;;5.45;1.70;;;10.20;95.20;;;;;;5082844;28;20040;-65
2022/04/12 06:00:27;;;;;;;6.82;1.58;;;10.20;95.30;;;;;;5074570;28;20047;-65
2022/04/12 06:02:54;;;;;;;6.55;1.63;;;10.00;96.00;;;;;;5074569;28;20483;-65
2022/04/12 06:05:21;;;;;;;4.07;1.27;;;10.00;96.00;;;;;;5074413;28;20040;-65
2022/04/12 06:07:47;;;;;;;10.35;2.00;;;10.00;96.30;;;;;;5090924;28;20044;-65
2022/04/12 06:10:15;;;;;;;8.18;2.20;;;10.00;97.50;;;;;;5094909;28;20047;-65
2022/04/12 06:12:41;;;;;;;5.10;1.60;;;10.00;96.90;;;;;;5086789;28;20101;-66
2022/04/12 06:15:08;;;;;;;8.85;1.50;;;9.90;96.50;;;;;;5088035;28;20078;-65
2022/04/12 06:17:35;;;;;;;8.65;1.55;;;10.10;97.30;;;;;;5084861;28;20507;-66
2022/04/12 06:20:09;;;;;;;7.93;1.38;;;10.10;97.10;;;;;;5084973;28;20040;-66
2022/04/12 06:22:36;;;;;;;11.32;1.70;;;10.30;97.00;;;;;;5076010;28;20032;-65
2022/04/12 06:25:02;;;;;;;7.30;1.85;;;10.40;96.70;;;;;;5076282;28;20139;-65
2022/04/12 06:27:39;;;;;;;6.40;1.73;;;10.50;96.50;;;;;;5081567;28;20067;-66
2022/04/12 06:30:16;;;;;;;8.18;1.90;;;10.60;96.90;;;;;;5074443;28;20131;-65
2022/04/12 06:32:43;;;;;;;5.82;1.88;;;10.70;97.00;;;;;;5073686;28;20041;-66
2022/04/12 06:35:10;;;;;;;10.32;3.17;;;10.90;96.90;;;;;;5073947;28;20432;-66
2022/04/12 06:37:37;;;;;;;9.75;5.50;;;11.00;97.00;;;;;;5074381;28;20127;-66
2022/04/12 06:40:07;;;;;;;7.13;3.28;;;11.10;96.60;;;;;;5074463;28;20024;-66
2022/04/12 06:42:34;;;;;;;3.92;1.10;;;11.20;95.90;;;;;;5073983;28;20048;-66
2022/04/12 06:45:00;;;;;;;5.03;2.67;;;11.30;95.90;;;;;;5074256;28;20062;-66
2022/04/12 06:47:25;;;;;;;5.97;1.65;;;11.40;95.50;;;;;;5074032;28;20036;-66
2022/04/12 06:49:52;;;;;;;7.28;2.20;;;11.50;95.20;;;;;;5073781;28;20414;-66
2022/04/12 06:52:20;;;;;;;6.57;1.63;;;11.50;95.60;;;;;;5074040;28;20056;-66
2022/04/12 06:54:46;;;;;;;8.63;1.88;;;11.60;95.60;;;;;;5070188;28;20044;-67
2022/04/12 06:57:12;;;;;;;4.82;1.25;;;11.60;95.60;;;;;;5082888;28;20124;-66
2022/04/12 06:59:38;;;;;;;8.50;1.55;;;11.70;95.80;;;;;;5070746;28;20044;-66
2022/04/12 07:02:05;;;;;;;4.65;1.05;;;11.70;94.20;;;;;;5070595;28;20040;-67
2022/04/12 07:04:31;;;;;;;3.15;1.17;;;11.80;94.20;;;;;;5071138;28;20135;-66
2022/04/12 07:06:57;;;;;;;3.42;1.33;;;11.90;93.40;;;;;;5070796;28;20474;-66
2022/04/12 07:09:24;;;;;;;4.63;1.40;;;12.00;94.00;;;;;;5070724;28;20477;-66
2022/04/12 07:11:54;;;;;;;7.50;1.70;;;12.10;93.50;;;;;;5070370;28;20045;-66
2022/04/12 07:14:20;;;;;;;6.22;1.45;;;12.10;95.30;;;;;;5070131;28;20054;-66
2022/04/12 07:16:46;;;;;;;5.97;1.35;;;12.20;94.00;;;;;;5072437;28;20796;-66
2022/04/12 07:19:11;;;;;;;2.70;0.90;;;12.20;94.10;;;;;;5071373;28;20132;-66
2022/04/12 07:21:37;;;;;;;4.85;1.10;;;12.30;94.40;;;;;;5071379;28;20575;-66
2022/04/12 07:24:03;;;;;;;5.28;1.30;;;12.40;94.30;;;;;;5072456;28;20141;-66
2022/04/12 07:26:33;;;;;;;4.57;1.25;;;12.40;94.10;;;;;;5071318;28;20047;-66
2022/04/12 07:28:59;;;;;;;3.92;1.50;;;12.50;95.00;;;;;;5070532;28;20470;-66
2022/04/12 07:31:26;;;;;;;6.18;1.50;;;12.40;95.80;;;;;;5070898;28;20084;-66
2022/04/12 07:33:52;;;;;;;5.03;1.60;;;12.50;95.70;;;;;;5071526;28;20074;-66
2022/04/12 07:36:18;;;;;;;3.78;1.40;;;12.70;95.30;;;;;;5071207;28;20036;-66
2022/04/12 07:38:44;;;;;;;6.38;1.55;;;12.90;94.70;;;;;;5070106;28;20040;-66
2022/04/12 07:41:10;;;;;;;7.13;1.42;;;13.00;95.20;;;;;;5071655;28;20379;-66
2022/04/12 07:43:39;;;;;;;5.60;1.15;;;12.80;95.80;;;;;;5071090;28;20044;-66
2022/04/12 07:46:04;;;;;;;7.30;2.03;;;12.80;95.60;;;;;;5070802;28;20048;-66
2022/04/12 07:48:31;;;;;;;5.43;2.20;;;12.80;95.50;;;;;;5071889;28;20185;-66
2022/04/12 07:50:57;;;;;;;8.13;1.92;;;12.70;95.00;;;;;;5073133;28;20086;-66
2022/04/12 07:53:23;;;;;;;4.88;1.27;;;12.70;96.20;;;;;;5072705;28;20087;-66
2022/04/12 07:55:48;;;;;;;5.78;1.60;;;12.70;97.00;;;;;;5070691;28;20075;-66
2022/04/12 07:58:17;;;;;;;4.38;1.25;;;13.00;94.60;;;;;;5071683;28;20642;-66
2022/04/12 08:00:43;;;;;;;9.00;2.47;;;13.10;94.30;;;;;;5072363;28;20044;-66
2022/04/12 08:03:09;;;;;;;8.27;2.28;;;13.20;95.00;;;;;;5071926;28;20043;-66
2022/04/12 08:05:35;;;;;;;8.68;1.98;;;13.30;95.30;;;;;;5070909;28;20462;-66
2022/04/12 08:08:02;;;;;;;5.97;2.47;;;13.30;94.60;;;;;;5072085;28;20076;-66
2022/04/12 08:10:28;;;;;;;7.78;2.20;;;13.30;95.60;;;;;;5071215;28;20102;-66
2022/04/12 08:12:55;;;;;;;10.32;2.95;;;13.40;95.10;;;;;;5070977;28;20037;-66
2022/04/12 08:15:22;;;;;;;7.25;1.88;;;13.40;94.00;;;;;;5071088;28;20381;-67
2022/04/12 08:17:48;;;;;;;11.75;1.63;;;13.40;94.50;;;;;;5070938;28;20041;-67
2022/04/12 08:20:14;;;;;;;9.75;3.00;;;13.50;94.20;;;;;;5070993;28;20542;-66
2022/04/12 08:22:41;;;;;;;5.05;2.00;;;13.60;94.00;;;;;;5071450;28;20049;-67
2022/04/12 08:25:07;;;;;;;14.10;7.15;;;13.60;93.70;;;;;;5070781;28;20062;-66
2022/04/12 08:27:33;;;;;;;13.35;3.17;;;13.60;93.40;;;;;;5071422;28;20045;-66
2022/04/12 08:29:59;;;;;;;5.68;1.45;;;13.70;93.40;;;;;;5072743;28;20456;-66
2022/04/12 08:32:25;;;;;;;8.35;3.53;;;13.80;93.60;;;;;;5072003;28;20123;-66
2022/04/12 08:34:53;;;;;;;11.70;3.22;;;14.00;94.70;;;;;;5070195;28;20090;-66
2022/04/12 08:37:19;;;;;;;13.15;5.03;;;14.00;93.50;;;;;;5069713;28;20053;-66
2022/04/12 08:39:45;;;;;;;18.05;7.57;;;14.30;94.90;;;;;;5069585;28;20055;-66
2022/04/12 08:42:11;;;;;;;6.88;2.97;;;14.50;94.50;;;;;;5071154;28;20064;-66
2022/04/12 08:44:39;;;;;;;19.50;8.23;;;14.60;94.10;;;;;;5072882;28;20036;-66
2022/04/12 08:47:07;;;;;;;11.68;4.43;;;14.70;93.50;;;;;;5071635;28;20044;-66
2022/04/12 08:49:35;;;;;;;19.02;7.82;;;14.90;94.60;;;;;;5072381;28;20049;-66
2022/04/12 08:52:02;;;;;;;8.20;2.05;;;15.00;93.60;;;;;;5073883;28;20060;-67
2022/04/12 08:54:29;;;;;;;8.73;3.85;;;15.10;93.50;;;;;;5074397;28;20399;-66
2022/04/12 08:56:54;;;;;;;14.30;4.63;;;15.00;93.60;;;;;;5074076;28;20075;-66
2022/04/12 08:59:20;;;;;;;13.90;4.80;;;15.10;93.60;;;;;;5074807;28;20094;-66
2022/04/12 09:01:50;;;;;;;13.93;5.47;;;15.10;92.50;;;;;;5074822;28;20032;-67
2022/04/12 09:04:16;;;;;;;16.20;4.75;;;15.30;92.80;;;;;;5074459;28;20036;-67
2022/04/12 09:06:53;;;;;;;5.30;1.70;;;15.30;92.50;;;;;;5056576;28;20526;-67
2022/04/12 09:09:23;;;;;;;6.60;1.67;;;15.40;91.70;;;;;;5074224;28;20032;-67
2022/04/12 09:12:02;;;;;;;;;;;15.60;92.70;;;;;;5077047;28;20040;-67
2022/04/12 09:14:42;;;;;;;9.43;4.10;;;15.60;91.70;;;;;;5074343;28;19995;-67
2022/04/12 09:17:10;;;;;;;9.93;1.48;;;15.70;91.70;;;;;;5074388;28;20040;-66
2022/04/12 09:19:40;;;;;;;17.45;3.40;;;15.50;92.20;;;;;;5074019;28;20112;-66
2022/04/12 09:22:17;;;;;;;9.43;3.90;;;15.60;91.80;;;;;;5073922;28;20040;-67
2022/04/12 09:24:49;;;;;;;11.90;4.60;;;15.60;91.80;;;;;;5074435;28;20278;-67
2022/04/12 09:27:26;;;;;;;8.60;1.55;;;15.70;91.00;;;;;;5075403;28;20047;-67
2022/04/12 09:29:57;;;;;;;12.63;2.72;;;15.70;92.50;;;;;;5073456;28;20495;-67
2022/04/12 09:32:25;;;;;;;9.65;2.13;;;16.00;92.60;;;;;;5074218;28;20040;-67
2022/04/12 09:34:52;;;;;;;10.23;4.00;;;16.00;91.10;;;;;;5075633;28;20082;-67
2022/04/12 09:37:29;;;;;;;7.00;2.33;;;16.10;91.80;;;;;;5074579;28;20044;-67
2022/04/12 09:40:02;;;;;;;5.40;1.60;;;16.10;91.50;;;;;;5084484;28;20426;-67
2022/04/12 09:42:57;;;;;;;12.85;2.53;;;16.20;92.70;;;;;;5095567;28;20070;-67
2022/04/12 09:45:27;;;;;;;10.10;2.58;;;16.30;91.30;;;;;;5094051;28;20074;-67
2022/04/12 09:47:57;;;;;;;10.80;3.70;;;16.30;92.10;;;;;;5093822;28;20150;-67
2022/04/12 09:50:24;;;;;;;;;;;16.30;91.30;;;;;;5085294;28;20084;-67
2022/04/12 09:53:01;;;;;;;3.65;1.27;;;16.30;90.50;;;;;;5075446;28;20287;-67
2022/04/12 09:55:38;;;;;;;4.13;1.52;;;16.10;90.80;;;;;;5074547;28;20040;-67
2022/04/12 09:58:09;;;;;;;7.32;1.48;;;16.10;92.30;;;;;;5073129;28;20524;-67
2022/04/12 10:00:38;;;;;;;8.93;1.67;;;16.10;91.60;;;;;;5084649;28;20399;-67
2022/04/12 10:03:10;;;;;;;11.68;3.35;;;16.30;91.60;;;;;;5094847;28;20039;-67
2022/04/12 10:05:36;;;;;;;2.72;1.30;;;16.40;92.00;;;;;;5095221;28;20039;-67
2022/04/12 10:08:04;;;;;;;5.07;1.52;;;16.30;90.70;;;;;;5093231;28;20031;-67
2022/04/12 10:10:30;;;;;;;18.38;5.97;;;16.30;91.20;;;;;;5088690;28;20048;-67
2022/04/12 10:12:58;;;;;;;8.48;3.08;;;16.30;91.30;;;;;;5074944;28;20044;-67
2022/04/12 10:15:25;;;;;;;11.00;3.10;;;16.20;91.40;;;;;;5074912;28;20094;-67
2022/04/12 10:17:53;;;;;;;10.18;2.70;;;16.20;90.40;;;;;;5074347;28;20040;-67
2022/04/12 10:20:19;;;;;;;9.00;2.90;;;16.30;92.10;;;;;;5072962;28;20040;-67
2022/04/12 10:22:46;;;;;;;7.82;1.55;;;16.20;90.90;;;;;;5073514;28;20040;-67
2022/04/12 10:25:16;;;;;;;5.90;1.13;;;16.20;91.00;;;;;;5073651;28;20127;-67
2022/04/12 10:27:43;;;;;;;4.43;1.05;;;16.10;91.10;;;;;;5072956;28;20040;-67
2022/04/12 10:30:18;;;;;;;8.98;2.30;;;16.10;90.50;;;;;;5072824;28;20048;-67
2022/04/12 10:33:03;;;;;;;5.32;2.10;;;16.30;91.90;;;;;;5072473;28;20040;-67
2022/04/12 10:35:54;;;;;;;12.35;2.92;;;16.40;90.10;;;;;;5072651;28;20048;-67
2022/04/12 10:38:22;;;;;;;10.70;1.73;;;16.40;90.60;;;;;;5072300;28;20074;-67
2022/04/12 10:41:11;;;;;;;2.90;1.05;;;16.30;89.30;;;;;;5072554;28;20384;-67
2022/04/12 10:43:38;;;;;;;4.43;1.05;;;16.40;91.10;;;;;;5072596;28;20373;-67
2022/04/12 10:46:08;;;;;;;7.45;1.30;;;16.30;90.40;;;;;;5072077;28;20086;-67
2022/04/12 10:48:34;;;;;;;10.07;1.48;;;16.30;91.10;;;;;;5072465;28;20036;-67
2022/04/12 10:51:02;;;;;;;7.65;1.55;;;16.50;92.80;;;;;;5071827;28;20121;-67
2022/04/12 10:53:40;;;;;;;9.70;1.85;;;16.40;92.30;;;;;;5072214;28;20050;-67
2022/04/12 10:56:15;;;;;;;11.60;1.95;;;16.50;93.30;;;;;;5071749;28;20072;-67
2022/04/12 10:58:43;;;;;;;7.45;1.40;;;16.50;93.20;;;;;;5092632;28;20086;-67
2022/04/12 11:01:32;;;;;;;17.90;2.67;;;;;;;;;;5094123;28;20424;-67
2022/04/12 11:04:01;;;;;;;9.68;1.33;;;;;;;;;;5074681;28;20036;-67
2022/04/12 11:06:31;;;;;;;5.60;1.10;;;16.20;87.80;;;;;;5085422;28;20070;-67
2022/04/12 11:09:06;;;;;;;5.45;1.13;;;16.20;89.50;;;;;;5087350;28;20463;-67
2022/04/12 11:11:44;;;;;;;7.53;1.63;;;16.20;90.10;;;;;;5073782;28;20135;-66
2022/04/12 11:14:33;;;;;;;36.58;15.10;;;16.40;90.60;;;;;;5085361;28;20036;-67
2022/04/12 11:17:03;;;;;;;4.78;1.70;;;16.40;87.80;;;;;;5093397;28;20122;-67
2022/04/12 11:19:45;;;;;;;25.73;9.63;;;16.40;87.50;;;;;;5093954;28;20043;-67
2022/04/12 11:22:12;;;;;;;51.35;20.92;;;16.40;85.70;;;;;;5093747;28;20044;-67
2022/04/12 11:24:38;;;;;;;40.83;15.73;;;16.40;86.60;;;;;;5075614;28;20040;-67
2022/04/12 11:27:12;;;;;;;23.10;7.43;;;16.60;91.90;;;;;;5085253;28;20044;-67
2022/04/12 11:29:40;;;;;;;29.75;12.93;;;16.50;87.20;;;;;;5073212;28;20090;-67
2022/04/12 11:32:07;;;;;;;4.55;1.38;;;16.60;90.90;;;;;;5073254;28;20503;-67
2022/04/12 11:34:35;;;;;;;13.57;7.68;;;16.60;92.10;;;;;;5073182;28;20124;-67
2022/04/12 11:37:07;;;;;;;5.35;1.83;;;16.60;87.30;;;;;;5073285;28;20135;-67
2022/04/12 11:39:38;;;;;;;8.40;2.92;;;16.60;87.70;;;;;;5073209;28;20127;-67
2022/04/12 11:42:06;;;;;;;9.35;3.20;;;16.50;87.80;;;;;;5073044;28;20041;-67
2022/04/12 11:44:33;;;;;;;7.78;2.55;;;16.60;89.60;;;;;;5072994;28;20503;-67
2022/04/12 11:47:07;;;;;;;8.48;1.98;;;16.60;89.00;;;;;;5073156;28;20035;-67
2022/04/12 11:49:36;;;;;;;11.32;2.22;;;16.50;88.10;;;;;;5075856;28;20105;-67
2022/04/12 11:52:04;;;;;;;5.65;1.20;;;16.50;87.80;;;;;;5073319;28;20040;-67
2022/04/12 11:54:32;;;;;;;5.57;1.25;;;16.50;89.10;;;;;;5073393;28;20098;-66
2022/04/12 11:57:13;;;;;;;6.57;1.98;;;16.50;88.70;;;;;;5073285;28;20048;-67
2022/04/12 11:59:47;;;;;;;4.30;1.17;;;16.40;87.30;;;;;;5073081;28;20041;-67
2022/04/12 12:02:14;;;;;;;5.65;1.20;;;16.50;90.70;;;;;;5073130;28;20415;-67
2022/04/12 12:04:48;;;;;;;4.22;1.58;;;16.60;91.50;;;;;;5073253;28;20032;-66
2022/04/12 12:07:15;;;;;;;4.05;1.20;;;16.60;90.70;;;;;;5073141;28;20158;-66
2022/04/12 12:10:11;;;;;;;4.85;1.10;;;16.60;87.60;;;;;;5072743;28;20049;-67
2022/04/12 12:12:42;;;;;;;6.43;1.63;;;16.70;90.90;;;;;;5056566;28;20052;-67
2022/04/12 12:15:26;;;;;;;4.65;1.17;;;16.70;91.10;;;;;;5073186;28;20036;-67
2022/04/12 12:18:03;;;;;;;6.68;1.10;;;;;;;;;;5072335;28;20051;-66
2022/04/12 12:20:31;;;;;;;5.00;1.20;;;16.70;88.20;;;;;;5072910;28;20123;-66
2022/04/12 12:22:59;;;;;;;5.25;1.00;;;16.70;88.80;;;;;;5072989;28;20085;-66
2022/04/12 12:25:54;;;;;;;3.97;1.10;;;16.80;87.80;;;;;;5076618;28;20138;-66
2022/04/12 12:28:24;;;;;;;6.07;1.17;;;16.90;89.60;;;;;;5076803;28;20036;-66
2022/04/12 12:31:03;;;;;;;3.83;0.98;;;17.00;87.60;;;;;;5076570;28;20063;-66
2022/04/12 12:33:44;;;;;;;8.30;1.08;;;17.10;89.30;;;;;;5058904;28;20399;-66
2022/04/12 12:36:18;;;;;;;9.75;1.42;;;17.20;90.00;;;;;;5077006;28;20067;-67
2022/04/12 12:38:44;;;;;;;8.02;1.30;;;17.30;86.80;;;;;;5076816;28;20036;-66
2022/04/12 12:41:10;;;;;;;10.40;1.73;;;17.30;87.10;;;;;;5073948;28;20048;-66
2022/04/12 12:43:37;;;;;;;6.05;1.65;;;17.30;85.90;;;;;;5074894;28;20819;-66
2022/04/12 12:46:07;;;;;;;7.65;1.60;;;17.40;88.00;;;;;;5075569;28;20139;-66
2022/04/12 12:48:32;;;;;;;8.82;1.40;;;17.50;85.30;;;;;;5076292;28;20046;-66
2022/04/12 12:51:05;;;;;;;6.93;1.48;;;17.50;85.50;;;;;;5076127;28;20044;-66
2022/04/12 12:53:31;;;;;;;3.78;1.30;;;17.60;86.70;;;;;;5076105;28;20082;-66
2022/04/12 12:55:56;;;;;;;8.32;1.33;;;17.60;84.20;;;;;;5076082;28;20040;-66
2022/04/12 12:58:29;;;;;;;10.23;1.77;;;17.60;85.10;;;;;;5076246;28;20040;-66